createdAt,value
2022-11-09T00:00:51.074Z,11.90
2022-11-09T00:03:18.840Z,11.90
2022-11-09T00:05:56.695Z,11.90
2022-11-09T00:08:24.192Z,11.90
2022-11-09T00:10:51.660Z,12.00
2022-11-09T00:13:19.395Z,11.90
2022-11-09T15:00:04.059Z,13.80
2022-11-09T15:02:31.984Z,13.70
2022-11-09T15:05:04.725Z,13.70
2022-11-09T15:07:36.285Z,13.70
2022-11-09T15:10:18.630Z,13.80
2022-11-09T15:12:55.599Z,13.80
2022-11-09T15:15:26.518Z,13.90
2022-11-09T15:17:53.860Z,13.90
2022-11-09T15:20:21.100Z,13.90
2022-11-09T15:22:58.815Z,13.80
2022-11-09T15:25:54.175Z,13.90
2022-11-09T15:28:27.462Z,13.80
2022-11-09T15:30:54.691Z,13.80
2022-11-09T15:33:24.652Z,13.80
2022-11-09T15:36:20.834Z,13.80
2022-11-09T15:39:00.266Z,13.80
2022-11-09T15:41:28.810Z,13.80
2022-11-09T15:43:56.503Z,13.80
2022-11-09T15:46:43.119Z,13.80
2022-11-09T15:49:23.954Z,13.80
2022-11-09T15:51:53.534Z,13.80
2022-11-09T15:54:23.109Z,13.80
2022-11-09T15:56:51.949Z,13.70
2022-11-09T15:59:25.749Z,13.70
2022-11-09T16:01:53.381Z,13.70
2022-11-09T16:04:20.901Z,13.60
2022-11-09T16:06:48.416Z,13.60
2022-11-09T16:09:16.451Z,13.60
2022-11-09T16:11:43.802Z,13.60
2022-11-09T16:14:11.297Z,13.50
2022-11-09T16:16:38.645Z,13.50
2022-11-09T16:19:06.111Z,13.50
2022-11-09T16:21:33.470Z,13.50
2022-11-09T16:24:00.935Z,13.40
2022-11-09T16:26:28.378Z,13.40
2022-11-09T16:28:55.878Z,13.30
2022-11-09T16:31:48.286Z,13.30
2022-11-09T16:34:11.061Z,13.20
2022-11-09T16:36:46.451Z,13.20
2022-11-09T16:39:18.985Z,13.20
2022-11-09T16:41:49.192Z,13.10
2022-11-09T16:44:20.163Z,13.20
2022-11-09T16:46:48.333Z,13.10
2022-11-09T16:49:15.683Z,13.10
2022-11-09T16:51:43.109Z,13.00
2022-11-09T16:54:10.440Z,13.00
2022-11-09T16:56:37.777Z,13.00
2022-11-09T16:59:04.994Z,13.00
2022-11-09T17:01:32.272Z,12.90
2022-11-09T17:03:59.785Z,13.00
2022-11-09T17:06:27.226Z,12.90
2022-11-09T17:08:57.086Z,12.80
2022-11-09T17:11:24.990Z,12.80
2022-11-09T17:13:57.100Z,12.80
2022-11-09T17:16:25.259Z,12.70
2022-11-09T17:18:54.281Z,12.70
2022-11-09T17:21:23.040Z,12.70
2022-11-09T17:23:51.006Z,12.60
2022-11-09T17:26:19.551Z,12.60
2022-11-09T17:28:47.235Z,12.60
2022-11-09T17:31:23.559Z,12.50
2022-11-09T17:33:50.997Z,12.60
2022-11-09T17:36:35.044Z,12.50
2022-11-09T17:39:06.755Z,12.50
2022-11-09T17:41:37.455Z,12.50
2022-11-09T17:44:07.437Z,12.50
2022-11-09T17:46:34.812Z,12.50
2022-11-09T17:49:07.045Z,12.50
2022-11-09T17:51:37.296Z,12.40
2022-11-09T17:54:05.146Z,12.30
2022-11-09T17:56:35.855Z,12.30
2022-11-09T17:59:05.461Z,12.20
2022-11-09T18:01:37.947Z,12.20
2022-11-09T18:04:09.818Z,12.20
2022-11-09T18:06:38.188Z,12.20
2022-11-09T18:11:53.418Z,12.10
2022-11-09T18:14:20.811Z,12.10
2022-11-09T18:16:48.630Z,12.10
2022-11-09T18:19:15.960Z,12.10
2022-11-09T18:21:45.138Z,12.00
2022-11-09T18:24:13.253Z,12.00
2022-11-09T18:26:40.671Z,12.00
2022-11-09T18:29:07.982Z,11.90
2022-11-09T18:31:35.308Z,12.00
2022-11-09T18:34:02.652Z,11.90
2022-11-09T18:36:30.075Z,12.00
2022-11-09T18:38:57.590Z,11.90
2022-11-09T18:41:25.564Z,11.90
2022-11-09T18:43:54.001Z,11.90
2022-11-09T18:46:22.438Z,11.90
2022-11-09T18:48:51.773Z,11.90
2022-11-09T18:51:19.514Z,11.90
2022-11-09T18:53:48.315Z,11.90
2022-11-09T18:56:23.212Z,11.90
2022-11-09T18:58:55.091Z,11.90
2022-11-09T19:01:25.059Z,11.80
2022-11-09T19:03:58.937Z,11.80
2022-11-09T19:06:27.473Z,11.90
2022-11-09T19:09:13.324Z,11.80
2022-11-09T19:11:40.822Z,11.90
2022-11-09T19:14:10.257Z,11.80
2022-11-09T19:16:37.691Z,11.80
2022-11-09T19:19:05.087Z,11.80
2022-11-09T19:21:45.619Z,11.80
2022-11-09T19:24:14.814Z,11.80
2022-11-09T19:26:42.098Z,11.70
2022-11-09T19:29:10.910Z,11.70
2022-11-09T19:31:41.581Z,11.70
2022-11-09T19:34:11.215Z,11.80
2022-11-09T19:36:38.644Z,11.70
2022-11-09T19:39:06.087Z,11.70
2022-11-09T19:41:33.399Z,11.60
2022-11-09T19:44:00.811Z,11.60
2022-11-09T19:46:33.280Z,11.60
2022-11-09T19:49:01.533Z,11.60
2022-11-09T19:51:30.980Z,11.60
2022-11-09T19:53:59.876Z,11.60
2022-11-09T19:56:29.630Z,11.60
2022-11-09T19:59:00.416Z,11.60
2022-11-09T20:01:28.738Z,11.60
2022-11-09T20:03:58.046Z,11.50
2022-11-09T20:06:26.959Z,11.50
2022-11-09T20:08:55.056Z,11.50
2022-11-09T20:11:43.030Z,11.50
2022-11-09T20:14:11.565Z,11.50
2022-11-09T20:16:40.407Z,11.40
2022-11-09T20:19:10.393Z,11.40
2022-11-09T20:21:40.150Z,11.40
2022-11-09T20:24:08.203Z,11.40
2022-11-09T20:26:36.229Z,11.40
2022-11-09T20:29:03.806Z,11.30
2022-11-09T20:31:31.131Z,11.30
2022-11-09T20:33:59.626Z,11.40
2022-11-09T20:36:26.971Z,11.30
2022-11-09T20:38:54.837Z,11.30
2022-11-09T20:41:25.439Z,11.30
2022-11-09T20:43:53.407Z,11.30
2022-11-09T20:46:22.709Z,11.30
2022-11-09T20:48:55.746Z,11.30
2022-11-09T20:51:24.303Z,11.30
2022-11-09T20:53:52.333Z,11.30
2022-11-09T20:56:20.779Z,11.30
2022-11-09T20:58:48.187Z,11.30
2022-11-09T21:01:18.001Z,11.30
2022-11-09T21:03:46.211Z,11.30
2022-11-09T21:06:14.721Z,11.30
2022-11-09T21:08:50.412Z,11.30
2022-11-09T21:11:19.250Z,11.30
2022-11-09T21:13:53.587Z,11.30
2022-11-09T21:16:24.052Z,11.30
2022-11-09T21:18:51.415Z,11.30
2022-11-09T21:21:23.495Z,11.20
2022-11-09T21:24:09.901Z,11.20
2022-11-09T21:26:55.967Z,11.20
2022-11-09T21:29:43.474Z,11.20
2022-11-09T21:32:12.140Z,11.20
2022-11-09T21:34:39.823Z,11.10
2022-11-09T21:37:07.645Z,11.10
2022-11-09T21:39:35.446Z,11.10
2022-11-09T21:42:04.057Z,11.10
2022-11-09T21:44:32.910Z,11.10
2022-11-09T21:47:01.467Z,11.10
2022-11-09T21:49:29.178Z,11.10
2022-11-09T21:51:56.986Z,11.10
2022-11-09T21:54:25.408Z,11.00
2022-11-09T21:56:53.075Z,11.00
2022-11-09T21:59:20.441Z,11.00
2022-11-09T22:01:47.943Z,11.00
2022-11-09T22:04:15.776Z,10.90
2022-11-09T22:06:43.563Z,10.90
2022-11-09T22:09:16.623Z,10.90
2022-11-09T22:12:03.418Z,10.90
2022-11-09T22:14:49.572Z,10.90
2022-11-09T22:17:16.965Z,10.90
2022-11-09T22:20:02.971Z,10.90
2022-11-09T22:22:31.457Z,10.90
2022-11-09T22:24:59.009Z,10.80
2022-11-09T22:27:26.370Z,10.90
2022-11-09T22:29:53.730Z,10.80
2022-11-09T22:32:21.576Z,10.80
2022-11-09T22:34:49.002Z,10.80
2022-11-09T22:37:16.390Z,10.80
2022-11-09T22:39:47.251Z,10.80
2022-11-09T22:42:15.207Z,10.70
2022-11-09T22:44:42.608Z,10.80
2022-11-09T22:47:10.062Z,10.70
2022-11-09T22:49:37.441Z,10.70
2022-11-09T22:52:05.417Z,10.70
2022-11-09T22:54:32.780Z,10.80
2022-11-09T22:57:00.119Z,10.80
2022-11-09T22:59:27.435Z,10.80
2022-11-09T23:01:54.892Z,10.80
2022-11-09T23:04:22.299Z,10.70
2022-11-09T23:06:49.733Z,10.80
2022-11-09T23:09:17.060Z,10.70
2022-11-09T23:11:44.509Z,10.70
2022-11-09T23:14:12.418Z,10.70
2022-11-09T23:16:39.730Z,10.70
2022-11-09T23:19:07.062Z,10.70
2022-11-09T23:21:37.288Z,10.70
2022-11-09T23:24:07.002Z,10.70
2022-11-09T23:26:34.920Z,10.70
2022-11-09T23:29:02.385Z,10.70
2022-11-09T23:31:29.759Z,10.80
2022-11-09T23:33:58.152Z,10.70
2022-11-09T23:36:26.595Z,10.70
2022-11-09T23:38:54.711Z,10.70
2022-11-09T23:41:22.061Z,10.70
2022-11-09T23:43:50.196Z,10.80
2022-11-09T23:46:18.103Z,10.80
2022-11-09T23:48:45.640Z,10.80
2022-11-09T23:51:13.541Z,10.80
2022-11-09T23:53:40.910Z,10.80
2022-11-09T23:56:10.292Z,10.80
2022-11-09T23:58:37.872Z,10.70
